Time;durP1;ratioP1;P1;durP2;ratioP2;P2;SDS_P1;SDS_P2;PMS_P1;PMS_P2;Temp;Humidity;BMP_temperature;BMP_pressure;BME280_temperature;BME280_humidity;BME280_pressure;Samples;Min_cycle;Max_cycle;Signal;HPM_P1;HPM_P2
2021/12/03 00:01:08;;;;;;;1.75;1.65;;;2.30;99.90;;;;;;4994827;28;20091;-82
2021/12/03 00:03:34;;;;;;;6.57;1.98;;;2.30;99.90;;;;;;4990526;28;20049;-81
2021/12/03 00:06:00;;;;;;;2.28;1.25;;;2.30;99.90;;;;;;4976071;28;20027;-82
2021/12/03 00:08:26;;;;;;;2.17;1.50;;;2.30;99.90;;;;;;4980295;28;20510;-81
2021/12/03 00:10:58;;;;;;;2.67;1.60;;;2.30;99.90;;;;;;4992363;28;20069;-80
2021/12/03 00:13:25;;;;;;;3.42;2.42;;;2.30;99.90;;;;;;4992667;28;20030;-81
2021/12/03 00:15:54;;;;;;;3.25;1.65;;;2.40;99.90;;;;;;4995542;28;20030;-82
2021/12/03 00:18:20;;;;;;;4.50;1.70;;;2.40;99.90;;;;;;4982340;28;20090;-82
2021/12/03 00:20:46;;;;;;;6.20;1.55;;;2.30;99.90;;;;;;4990106;28;20034;-81
2021/12/03 00:23:12;;;;;;;2.38;1.73;;;2.30;99.90;;;;;;4983546;28;20027;-81
2021/12/03 00:25:39;;;;;;;2.47;1.73;;;2.40;99.90;;;;;;4981142;28;20054;-82
2021/12/03 00:28:05;;;;;;;9.63;1.80;;;2.30;99.90;;;;;;4985202;28;20046;-82
2021/12/03 00:30:32;;;;;;;1.75;1.42;;;2.30;99.90;;;;;;4981493;28;20042;-81
2021/12/03 00:32:58;;;;;;;6.50;1.67;;;2.30;99.90;;;;;;4975493;28;20121;-82
2021/12/03 00:35:24;;;;;;;10.32;2.35;;;2.30;99.90;;;;;;4996085;28;20070;-80
2021/12/03 00:37:51;;;;;;;11.02;2.40;;;2.30;99.90;;;;;;4998817;28;20023;-81
2021/12/03 00:40:20;;;;;;;3.33;2.05;;;2.30;99.90;;;;;;4977042;28;20033;-82
2021/12/03 00:42:46;;;;;;;5.10;1.65;;;2.40;99.90;;;;;;5009606;28;20041;-82
2021/12/03 00:45:13;;;;;;;2.65;1.65;;;2.40;99.90;;;;;;4997050;28;20023;-82
2021/12/03 00:47:40;;;;;;;2.80;1.47;;;2.40;99.90;;;;;;4998135;28;20034;-82
2021/12/03 00:50:08;;;;;;;2.85;2.00;;;2.40;99.90;;;;;;4993569;28;20078;-80
2021/12/03 00:52:34;;;;;;;3.15;1.83;;;2.40;99.90;;;;;;4996688;28;20026;-81
2021/12/03 00:55:00;;;;;;;4.60;2.35;;;2.40;99.90;;;;;;4997316;28;20506;-81
2021/12/03 00:57:26;;;;;;;11.38;3.05;;;2.30;99.90;;;;;;4994302;28;20104;-81
2021/12/03 00:59:52;;;;;;;6.35;2.58;;;2.30;99.90;;;;;;4987116;28;20039;-81
2021/12/03 01:02:17;;;;;;;9.55;3.08;;;2.30;99.90;;;;;;4985784;28;20121;-82
2021/12/03 01:04:44;;;;;;;3.78;2.08;;;2.30;99.90;;;;;;4998239;28;20074;-83
2021/12/03 01:07:09;;;;;;;5.55;2.58;;;2.30;99.90;;;;;;4992588;28;20110;-82
2021/12/03 01:09:35;;;;;;;10.55;2.75;;;2.30;99.90;;;;;;4986598;28;20061;-84
2021/12/03 01:12:01;;;;;;;8.35;2.83;;;2.30;99.90;;;;;;4997199;28;20506;-82
2021/12/03 01:14:27;;;;;;;9.30;2.03;;;2.30;99.90;;;;;;4998614;28;20033;-82
2021/12/03 01:16:52;;;;;;;5.88;2.65;;;2.30;99.90;;;;;;5014725;28;20022;-83
2021/12/03 01:19:19;;;;;;;4.35;2.55;;;2.20;99.90;;;;;;4998518;28;20039;-83
2021/12/03 01:21:46;;;;;;;6.43;2.28;;;2.30;99.90;;;;;;4990680;28;20027;-82
2021/12/03 01:24:12;;;;;;;3.60;2.80;;;2.20;99.90;;;;;;4980066;28;20098;-82
2021/12/03 01:26:39;;;;;;;2.63;2.00;;;2.30;99.90;;;;;;4979337;28;20082;-81
2021/12/03 01:29:06;;;;;;;3.67;2.50;;;2.20;99.90;;;;;;4997588;28;20447;-81
2021/12/03 01:31:31;;;;;;;3.95;2.33;;;2.20;99.90;;;;;;4994764;28;20285;-81
2021/12/03 01:33:57;;;;;;;3.17;2.03;;;2.20;99.90;;;;;;4989656;28;20399;-82
2021/12/03 01:36:23;;;;;;;8.43;1.83;;;2.20;99.90;;;;;;4994836;28;20026;-82
2021/12/03 01:38:49;;;;;;;5.30;2.28;;;2.20;99.90;;;;;;4992106;28;20414;-83
2021/12/03 01:41:15;;;;;;;5.57;2.47;;;2.20;99.90;;;;;;4981619;28;20062;-82
2021/12/03 01:43:43;;;;;;;5.95;1.95;;;2.30;99.90;;;;;;4988062;28;20100;-83
2021/12/03 01:46:11;;;;;;;4.18;2.00;;;2.20;99.90;;;;;;4987637;28;20065;-82
2021/12/03 01:48:37;;;;;;;15.65;2.40;;;2.30;99.90;;;;;;4984619;28;20062;-82
2021/12/03 01:51:05;;;;;;;9.70;1.90;;;2.30;99.90;;;;;;4988920;28;20033;-81
2021/12/03 01:53:35;;;;;;;3.55;1.70;;;2.30;99.90;;;;;;4978954;28;20082;-80
2021/12/03 01:56:05;;;;;;;3.03;1.55;;;2.40;99.90;;;;;;4977114;28;20019;-82
2021/12/03 01:58:31;;;;;;;11.68;2.58;;;2.50;99.90;;;;;;4986958;28;20039;-80
2021/12/03 02:01:00;;;;;;;2.28;1.60;;;2.50;99.90;;;;;;4991639;28;20030;-81
2021/12/03 02:03:30;;;;;;;1.20;1.10;;;2.50;99.90;;;;;;4996802;28;20031;-80
2021/12/03 02:05:57;;;;;;;6.45;1.95;;;2.50;99.90;;;;;;4985740;28;20026;-83
2021/12/03 02:08:23;;;;;;;2.88;1.38;;;2.50;99.90;;;;;;4992150;28;20046;-81
2021/12/03 02:10:50;;;;;;;6.38;1.50;;;2.60;99.90;;;;;;4988936;28;20029;-81
2021/12/03 02:13:16;;;;;;;2.85;1.20;;;2.60;99.90;;;;;;4982762;28;20105;-79
2021/12/03 02:15:43;;;;;;;11.30;1.55;;;2.60;99.90;;;;;;4990205;28;20023;-81
2021/12/03 02:18:10;;;;;;;11.53;1.30;;;2.60;99.90;;;;;;4979123;28;20396;-80
2021/12/03 02:20:49;;;;;;;6.55;1.77;;;2.70;99.90;;;;;;4993526;28;20313;-82
2021/12/03 02:23:15;;;;;;;5.30;1.25;;;2.60;99.90;;;;;;4976275;28;20026;-82
2021/12/03 02:25:42;;;;;;;3.75;1.40;;;2.60;99.90;;;;;;4976913;28;20039;-83
2021/12/03 02:28:08;;;;;;;8.00;0.93;;;2.60;99.90;;;;;;4976996;28;20034;-83
2021/12/03 02:30:34;;;;;;;4.80;1.20;;;2.60;99.90;;;;;;4978430;28;20105;-82
2021/12/03 02:33:00;;;;;;;3.53;1.20;;;2.60;99.90;;;;;;4987109;28;20411;-83
2021/12/03 02:35:26;;;;;;;1.02;0.98;;;2.60;99.90;;;;;;4983035;28;20045;-80
2021/12/03 02:37:53;;;;;;;1.45;1.08;;;2.60;99.90;;;;;;4982981;28;20027;-81
2021/12/03 02:40:19;;;;;;;4.22;1.10;;;2.60;99.90;;;;;;4983481;28;20030;-81
2021/12/03 02:42:45;;;;;;;4.53;1.40;;;2.70;99.90;;;;;;4996076;28;20565;-81
2021/12/03 02:45:12;;;;;;;5.30;1.38;;;2.70;99.90;;;;;;5000072;28;20062;-82
2021/12/03 02:47:38;;;;;;;1.05;0.77;;;2.60;99.90;;;;;;4988010;28;20042;-82
2021/12/03 02:50:05;;;;;;;3.50;1.13;;;2.70;99.90;;;;;;4983689;28;20037;-82
2021/12/03 02:52:31;;;;;;;1.00;0.80;;;2.70;99.90;;;;;;5010511;28;20037;-81
2021/12/03 02:54:56;;;;;;;6.55;0.93;;;2.70;99.90;;;;;;5015910;28;20046;-82
2021/12/03 02:57:22;;;;;;;2.83;0.80;;;2.80;99.90;;;;;;5016293;28;20073;-82
2021/12/03 02:59:48;;;;;;;2.33;1.30;;;2.80;99.90;;;;;;5011959;28;20089;-82
2021/12/03 03:02:13;;;;;;;6.68;1.20;;;2.80;99.90;;;;;;4991077;28;20092;-83
2021/12/03 03:04:39;;;;;;;1.25;1.05;;;2.90;99.90;;;;;;4995647;28;20501;-83
2021/12/03 03:07:05;;;;;;;3.28;0.98;;;2.90;99.90;;;;;;4988236;28;20373;-81
2021/12/03 03:09:31;;;;;;;4.30;1.77;;;3.00;99.90;;;;;;4993521;28;20022;-83
2021/12/03 03:11:58;;;;;;;5.43;1.13;;;2.90;99.90;;;;;;4985596;28;20043;-82
2021/12/03 03:14:24;;;;;;;5.60;1.25;;;2.90;99.90;;;;;;4983008;28;20061;-79
2021/12/03 03:16:52;;;;;;;2.50;1.08;;;3.00;99.90;;;;;;4993302;28;20094;-81
2021/12/03 03:19:21;;;;;;;4.80;1.27;;;3.00;99.90;;;;;;4993965;28;20038;-82
2021/12/03 03:21:47;;;;;;;2.22;1.27;;;3.00;99.90;;;;;;4981496;28;20034;-82
2021/12/03 03:24:14;;;;;;;2.20;1.27;;;3.00;99.90;;;;;;4980646;28;20034;-82
2021/12/03 03:26:43;;;;;;;4.32;1.17;;;3.00;99.90;;;;;;4983710;28;20023;-81
2021/12/03 03:29:12;;;;;;;3.03;1.08;;;3.00;99.90;;;;;;4985276;28;20026;-80
2021/12/03 03:31:38;;;;;;;1.30;1.13;;;3.00;99.90;;;;;;4988849;28;20054;-80
2021/12/03 03:34:05;;;;;;;3.95;1.38;;;3.00;99.90;;;;;;5009573;28;20113;-80
2021/12/03 03:36:37;;;;;;;2.73;1.20;;;3.00;99.90;;;;;;4994616;28;20080;-80
2021/12/03 03:39:05;;;;;;;2.50;1.40;;;3.00;99.90;;;;;;4989273;28;20023;-82
2021/12/03 03:41:31;;;;;;;5.20;1.45;;;3.10;99.90;;;;;;4990459;28;20567;-81
2021/12/03 03:43:57;;;;;;;5.05;2.15;;;3.10;99.90;;;;;;4991538;28;20046;-81
2021/12/03 03:46:34;;;;;;;3.50;1.25;;;3.10;99.90;;;;;;4995316;28;20038;-81
2021/12/03 03:49:00;;;;;;;1.85;1.55;;;3.10;99.90;;;;;;4976589;28;20114;-79
2021/12/03 03:51:26;;;;;;;3.35;1.92;;;3.10;99.90;;;;;;4980781;28;20539;-80
2021/12/03 03:53:53;;;;;;;8.52;1.75;;;3.10;99.90;;;;;;4983615;28;20046;-80
2021/12/03 03:56:19;;;;;;;3.70;1.50;;;3.10;99.90;;;;;;4992360;28;20539;-81
2021/12/03 03:58:44;;;;;;;5.88;1.58;;;3.10;99.90;;;;;;4990817;28;20109;-80
2021/12/03 04:01:11;;;;;;;5.88;1.30;;;3.10;99.90;;;;;;4992173;28;20023;-80
2021/12/03 04:03:37;;;;;;;1.85;1.55;;;3.20;99.90;;;;;;4994490;28;20030;-80
2021/12/03 04:06:03;;;;;;;3.45;2.20;;;3.20;99.90;;;;;;4992539;28;20122;-81
2021/12/03 04:08:29;;;;;;;4.15;1.75;;;3.30;99.90;;;;;;4987476;28;20058;-81
2021/12/03 04:10:59;;;;;;;4.85;2.00;;;3.30;99.90;;;;;;4981527;28;20511;-80
2021/12/03 04:13:26;;;;;;;7.70;2.90;;;3.40;99.90;;;;;;4975174;28;20046;-80
2021/12/03 04:15:52;;;;;;;8.73;2.22;;;3.40;99.90;;;;;;4986540;28;20105;-81
2021/12/03 04:18:17;;;;;;;2.45;1.80;;;3.40;99.90;;;;;;4992396;28;20034;-80
2021/12/03 04:20:44;;;;;;;4.43;1.98;;;3.50;99.90;;;;;;4992192;28;20030;-80
2021/12/03 04:23:12;;;;;;;4.10;2.10;;;3.50;99.90;;;;;;4994045;28;20517;-79
2021/12/03 04:25:38;;;;;;;4.50;2.00;;;3.60;99.90;;;;;;4977472;28;20054;-80
2021/12/03 04:28:03;;;;;;;2.40;1.73;;;3.60;99.90;;;;;;4982949;28;20554;-80
2021/12/03 04:30:30;;;;;;;7.88;1.90;;;3.60;99.90;;;;;;4991894;28;20057;-81
2021/12/03 04:32:57;;;;;;;5.63;2.40;;;3.60;99.90;;;;;;4988789;28;20038;-80
2021/12/03 04:35:24;;;;;;;4.75;2.00;;;3.60;99.90;;;;;;4991382;28;20034;-80
2021/12/03 04:37:50;;;;;;;8.07;3.28;;;3.70;99.90;;;;;;4989038;28;20062;-81
2021/12/03 04:40:17;;;;;;;6.40;2.80;;;3.60;99.90;;;;;;4980492;28;20066;-80
2021/12/03 04:42:43;;;;;;;5.55;2.55;;;3.60;99.90;;;;;;4981318;28;20038;-81
2021/12/03 04:45:11;;;;;;;8.48;3.92;;;3.50;99.90;;;;;;4994278;28;20033;-80
2021/12/03 04:47:37;;;;;;;12.07;2.90;;;3.50;99.90;;;;;;4993607;28;20034;-80
2021/12/03 04:50:09;;;;;;;7.82;4.05;;;3.50;99.90;;;;;;4984679;28;20114;-81
2021/12/03 04:52:35;;;;;;;10.43;4.30;;;3.40;99.90;;;;;;4978291;28;20034;-80
2021/12/03 04:55:00;;;;;;;6.93;4.32;;;3.40;99.90;;;;;;4993257;28;20033;-79
2021/12/03 04:57:26;;;;;;;7.65;3.28;;;3.50;99.90;;;;;;4988574;28;20034;-79
2021/12/03 04:59:52;;;;;;;7.15;3.70;;;3.50;99.90;;;;;;4974450;28;20065;-83
2021/12/03 05:02:19;;;;;;;9.43;3.65;;;3.50;99.90;;;;;;4977716;28;20557;-81
2021/12/03 05:04:47;;;;;;;9.60;4.07;;;3.50;99.90;;;;;;4987545;28;20517;-79
2021/12/03 05:09:38;;;;;;;8.27;3.05;;;3.60;99.90;;;;;;4993989;28;20395;-78
2021/12/03 05:12:05;;;;;;;9.13;3.22;;;3.60;99.90;;;;;;4988503;28;20456;-79
2021/12/03 05:14:31;;;;;;;6.80;3.65;;;3.60;99.90;;;;;;4982812;28;20097;-79
2021/12/03 05:16:57;;;;;;;7.00;2.70;;;3.60;99.90;;;;;;4978707;28;20079;-79
2021/12/03 05:19:23;;;;;;;4.88;2.67;;;3.70;99.90;;;;;;4974205;28;20117;-79
2021/12/03 05:21:49;;;;;;;6.03;3.03;;;3.70;99.90;;;;;;4986666;28;20117;-80
2021/12/03 05:24:16;;;;;;;6.85;2.97;;;3.80;99.90;;;;;;4973730;28;20093;-80
2021/12/03 05:26:43;;;;;;;8.95;2.72;;;3.80;99.90;;;;;;4977429;28;20090;-80
2021/12/03 05:29:10;;;;;;;5.45;2.88;;;3.80;99.90;;;;;;4993608;28;20484;-80
2021/12/03 05:31:36;;;;;;;9.93;3.45;;;3.80;99.90;;;;;;4977958;28;20049;-79
2021/12/03 05:34:05;;;;;;;10.20;3.70;;;3.80;99.90;;;;;;4995840;28;20034;-79
2021/12/03 05:36:31;;;;;;;7.50;3.10;;;3.80;99.90;;;;;;4993222;28;20029;-80
2021/12/03 05:38:57;;;;;;;5.60;2.97;;;3.70;99.90;;;;;;4987831;28;20027;-79
2021/12/03 05:41:23;;;;;;;9.18;3.55;;;3.80;99.90;;;;;;4995986;28;20050;-79
2021/12/03 05:43:49;;;;;;;12.73;4.28;;;3.80;99.90;;;;;;4986691;28;20026;-80
2021/12/03 05:46:15;;;;;;;6.10;3.70;;;3.90;99.90;;;;;;4995618;28;20316;-79
2021/12/03 05:48:41;;;;;;;8.30;4.00;;;3.90;99.90;;;;;;4983613;28;20033;-80
2021/12/03 05:51:07;;;;;;;15.40;4.72;;;3.80;99.90;;;;;;4983151;28;20034;-79
2021/12/03 05:53:33;;;;;;;15.20;4.40;;;3.90;99.90;;;;;;4982421;28;20027;-80
2021/12/03 05:55:59;;;;;;;5.00;3.88;;;3.90;99.90;;;;;;4991955;28;20022;-81
2021/12/03 05:58:25;;;;;;;9.45;3.97;;;3.90;99.90;;;;;;4985493;28;20038;-79
2021/12/03 06:00:51;;;;;;;7.40;4.25;;;3.90;99.90;;;;;;4983102;28;20049;-80
2021/12/03 06:03:17;;;;;;;11.85;4.90;;;3.90;99.90;;;;;;4986105;28;20454;-80
2021/12/03 06:05:43;;;;;;;15.50;4.95;;;4.00;99.90;;;;;;4995273;28;20058;-80
2021/12/03 06:08:09;;;;;;;14.27;4.20;;;3.90;99.90;;;;;;4987778;28;20546;-79
2021/12/03 06:10:35;;;;;;;11.35;4.22;;;4.00;99.90;;;;;;4987810;28;20458;-81
2021/12/03 06:13:01;;;;;;;8.98;3.85;;;4.00;99.90;;;;;;4995025;28;20043;-81
2021/12/03 06:15:27;;;;;;;10.05;4.05;;;4.00;99.90;;;;;;4992835;28;20029;-78
2021/12/03 06:17:53;;;;;;;10.00;4.20;;;4.10;99.90;;;;;;4981768;28;20030;-79
2021/12/03 06:20:20;;;;;;;7.80;3.95;;;4.10;99.90;;;;;;4992325;28;20270;-78
2021/12/03 06:22:46;;;;;;;8.10;3.13;;;4.10;99.90;;;;;;4989027;28;20112;-80
2021/12/03 06:25:13;;;;;;;11.90;3.85;;;4.10;99.90;;;;;;4993323;28;20038;-80
2021/12/03 06:27:39;;;;;;;8.15;4.05;;;4.20;99.90;;;;;;4992197;28;20378;-80
2021/12/03 06:30:09;;;;;;;8.43;4.35;;;4.10;99.90;;;;;;4993947;28;20050;-79
2021/12/03 06:32:37;;;;;;;15.43;4.03;;;4.10;99.90;;;;;;4994485;28;20541;-80
2021/12/03 06:35:04;;;;;;;14.73;3.97;;;4.20;99.90;;;;;;4989229;28;20408;-80
2021/12/03 06:37:30;;;;;;;14.20;3.85;;;4.10;99.90;;;;;;4995339;28;20479;-79
2021/12/03 06:39:56;;;;;;;13.25;3.38;;;4.10;99.90;;;;;;4986982;28;20037;-80
2021/12/03 06:42:21;;;;;;;8.48;3.50;;;4.10;99.90;;;;;;4992790;28;20036;-80
2021/12/03 06:44:47;;;;;;;9.73;3.83;;;4.10;99.90;;;;;;4992966;28;20053;-79
2021/12/03 06:47:13;;;;;;;9.95;3.38;;;4.10;99.90;;;;;;4976162;28;20071;-79
2021/12/03 06:49:39;;;;;;;13.63;3.88;;;4.10;99.90;;;;;;4995867;28;20480;-79
2021/12/03 06:52:08;;;;;;;14.10;4.55;;;4.10;99.90;;;;;;4988424;28;20034;-80
2021/12/03 06:54:35;;;;;;;11.75;4.03;;;4.20;99.90;;;;;;4988518;28;20483;-80
2021/12/03 06:57:04;;;;;;;16.48;5.03;;;4.20;99.90;;;;;;4975813;28;20125;-80
2021/12/03 06:59:31;;;;;;;12.38;4.70;;;4.20;99.90;;;;;;4984810;28;20022;-81
2021/12/03 07:01:56;;;;;;;13.35;4.25;;;4.30;99.90;;;;;;4995748;28;20105;-79
2021/12/03 07:04:22;;;;;;;16.30;4.28;;;4.20;99.90;;;;;;4995541;28;20062;-80
2021/12/03 07:06:48;;;;;;;12.90;3.22;;;4.20;99.90;;;;;;4983194;28;20031;-79
2021/12/03 07:09:14;;;;;;;19.15;3.75;;;4.20;99.90;;;;;;4986803;28;20029;-81
2021/12/03 07:11:41;;;;;;;8.73;3.70;;;4.30;99.90;;;;;;4977354;28;20108;-81
2021/12/03 07:14:06;;;;;;;6.10;3.25;;;4.30;99.90;;;;;;4977218;28;20030;-81
2021/12/03 07:16:33;;;;;;;17.92;3.78;;;4.30;99.90;;;;;;4975198;28;20400;-80
2021/12/03 07:18:58;;;;;;;12.70;3.72;;;4.30;99.90;;;;;;4979028;28;20026;-80
2021/12/03 07:21:24;;;;;;;26.95;3.90;;;4.20;99.90;;;;;;4995178;28;20035;-79
2021/12/03 07:23:51;;;;;;;13.23;3.53;;;4.30;99.90;;;;;;4985910;28;20058;-84
2021/12/03 07:26:18;;;;;;;15.15;3.35;;;4.30;99.90;;;;;;4996959;28;20034;-82
2021/12/03 07:28:44;;;;;;;11.55;3.67;;;4.20;99.90;;;;;;4995013;28;20038;-82
2021/12/03 07:31:11;;;;;;;7.22;3.00;;;4.30;99.90;;;;;;4985484;28;20035;-81
2021/12/03 07:33:37;;;;;;;18.10;3.17;;;4.30;99.90;;;;;;4983497;28;20026;-82
2021/12/03 07:36:07;;;;;;;17.05;4.15;;;4.30;99.90;;;;;;4997020;28;20030;-82
2021/12/03 07:38:34;;;;;;;11.15;3.78;;;4.30;99.90;;;;;;4986256;28;20030;-81
2021/12/03 07:41:00;;;;;;;19.48;4.13;;;4.30;99.90;;;;;;4978856;28;20039;-81
2021/12/03 07:43:27;;;;;;;14.02;3.47;;;4.30;99.90;;;;;;4987528;28;20029;-82
2021/12/03 07:45:52;;;;;;;14.65;3.90;;;4.30;99.90;;;;;;4989062;28;20059;-80
2021/12/03 07:48:21;;;;;;;11.52;2.90;;;4.30;99.90;;;;;;4979909;28;20062;-81
2021/12/03 07:50:48;;;;;;;9.27;2.75;;;4.20;99.90;;;;;;4976238;28;20042;-81
2021/12/03 07:53:18;;;;;;;9.30;3.97;;;4.30;99.90;;;;;;4981135;28;20483;-82
2021/12/03 07:55:47;;;;;;;8.45;2.72;;;4.20;99.90;;;;;;4994813;28;20117;-81
2021/12/03 07:58:13;;;;;;;15.05;4.03;;;4.20;99.90;;;;;;4994744;28;20088;-81
2021/12/03 08:00:39;;;;;;;5.70;2.92;;;4.20;99.90;;;;;;4980132;28;20029;-83
2021/12/03 08:03:05;;;;;;;9.00;2.90;;;4.20;99.90;;;;;;4983532;28;20120;-81
2021/12/03 08:05:30;;;;;;;9.13;3.55;;;4.30;99.90;;;;;;4974506;28;20035;-80
2021/12/03 08:07:58;;;;;;;10.40;3.03;;;4.20;99.90;;;;;;4979294;28;20587;-80
2021/12/03 08:10:24;;;;;;;10.95;3.13;;;4.30;99.90;;;;;;4990033;28;20499;-82
2021/12/03 08:12:49;;;;;;;13.35;3.45;;;4.30;99.90;;;;;;4997557;28;20070;-81
2021/12/03 08:15:15;;;;;;;5.45;2.95;;;4.30;99.90;;;;;;5002384;28;20023;-78
2021/12/03 08:17:42;;;;;;;8.65;2.97;;;4.20;99.90;;;;;;5016890;28;20026;-79
2021/12/03 08:20:09;;;;;;;10.98;2.83;;;4.20;99.90;;;;;;5018533;28;20010;-82
2021/12/03 08:22:34;;;;;;;3.60;2.05;;;4.20;99.90;;;;;;5017406;28;20033;-79
2021/12/03 08:25:01;;;;;;;13.48;3.40;;;4.20;99.90;;;;;;5010095;28;20019;-84
2021/12/03 08:27:27;;;;;;;11.38;3.20;;;4.20;99.90;;;;;;4997179;28;20019;-81
2021/12/03 08:29:53;;;;;;;6.95;3.33;;;4.20;99.90;;;;;;4998218;28;20081;-83
2021/12/03 08:32:19;;;;;;;11.93;2.60;;;4.20;99.90;;;;;;4996135;28;20042;-83
2021/12/03 08:34:45;;;;;;;10.10;3.42;;;4.10;99.90;;;;;;5003104;28;20058;-83
2021/12/03 08:37:11;;;;;;;8.02;3.85;;;4.20;99.90;;;;;;5019251;28;20074;-81
2021/12/03 08:39:37;;;;;;;8.23;3.35;;;4.20;99.90;;;;;;5019034;28;20026;-80
2021/12/03 08:42:10;;;;;;;10.45;3.42;;;4.30;99.90;;;;;;5018022;28;20041;-83
2021/12/03 08:44:35;;;;;;;6.55;3.22;;;4.30;99.90;;;;;;5007743;28;20039;-84
2021/12/03 08:47:04;;;;;;;21.38;4.43;;;4.30;99.90;;;;;;4999457;28;20053;-82
2021/12/03 08:50:10;;;;;;;16.30;4.53;;;4.40;99.90;;;;;;5011246;28;20022;-84
2021/12/03 08:52:49;;;;;;;33.60;4.85;;;4.40;99.90;;;;;;5002954;28;20141;-79
2021/12/03 08:55:16;;;;;;;19.48;3.83;;;4.40;99.90;;;;;;5004586;28;20034;-78
2021/12/03 08:57:41;;;;;;;11.73;3.78;;;4.40;99.90;;;;;;5014008;28;20042;-81
2021/12/03 09:00:10;;;;;;;25.48;4.57;;;4.40;99.90;;;;;;4983946;28;20019;-82
2021/12/03 09:02:36;;;;;;;23.35;4.10;;;4.40;99.90;;;;;;4987348;28;20690;-84
2021/12/03 09:05:02;;;;;;;10.30;3.63;;;4.40;99.90;;;;;;4984036;28;20027;-81
2021/12/03 09:07:28;;;;;;;17.80;3.78;;;4.40;99.90;;;;;;4982224;28;20030;-80
2021/12/03 09:09:54;;;;;;;14.73;3.63;;;4.40;99.90;;;;;;4987467;28;20368;-80
2021/12/03 09:12:19;;;;;;;22.58;4.38;;;4.50;99.90;;;;;;4983106;28;20071;-81
2021/12/03 09:14:50;;;;;;;13.38;3.92;;;4.60;99.90;;;;;;4982606;28;20026;-80
2021/12/03 09:17:32;;;;;;;15.68;3.63;;;4.70;99.90;;;;;;4990047;28;20093;-81
2021/12/03 09:20:06;;;;;;;15.65;3.95;;;4.60;99.90;;;;;;4986653;28;20011;-80
2021/12/03 09:22:45;;;;;;;11.35;3.72;;;4.60;99.90;;;;;;4996022;28;20042;-79
2021/12/03 09:25:17;;;;;;;16.05;3.55;;;4.60;99.90;;;;;;4993051;28;20164;-79
2021/12/03 09:27:43;;;;;;;13.13;3.40;;;4.80;99.90;;;;;;4995169;28;20065;-79
2021/12/03 09:30:12;;;;;;;13.55;3.15;;;4.90;99.90;;;;;;4995739;28;20023;-76
2021/12/03 09:32:38;;;;;;;9.27;2.25;;;4.90;99.90;;;;;;4991840;28;20026;-79
2021/12/03 09:35:04;;;;;;;18.20;2.90;;;4.80;99.90;;;;;;4993930;28;20029;-77
2021/12/03 09:37:30;;;;;;;15.18;2.85;;;4.80;99.90;;;;;;4985178;28;20038;-77
2021/12/03 09:40:02;;;;;;;11.98;2.60;;;4.80;99.90;;;;;;4992412;28;20058;-78
2021/12/03 09:42:27;;;;;;;10.27;3.22;;;4.80;99.90;;;;;;4994030;28;20035;-77
2021/12/03 09:44:53;;;;;;;11.43;2.63;;;4.90;99.90;;;;;;4990555;28;20404;-79
2021/12/03 09:47:19;;;;;;;11.98;2.50;;;4.90;99.90;;;;;;4988607;28;20022;-78
2021/12/03 09:49:53;;;;;;;11.65;1.95;;;4.90;99.90;;;;;;4983856;28;20473;-80
2021/12/03 09:54:50;;;;;;;9.82;2.40;;;5.00;99.90;;;;;;4985381;28;20026;-77
2021/12/03 09:57:31;;;;;;;7.78;2.10;;;5.00;99.90;;;;;;4987257;28;20046;-77
2021/12/03 10:00:22;;;;;;;9.77;2.78;;;5.10;99.90;;;;;;4977089;28;20502;-78
2021/12/03 10:14:38;;;;;;;7.68;2.10;;;5.10;99.90;;;;;;4992799;28;20045;-77
2021/12/03 10:20:03;;;;;;;8.68;2.10;;;4.90;99.90;;;;;;4983085;28;20034;-77
2021/12/03 10:38:18;;;;;;;9.05;2.40;;;4.80;99.90;;;;;;4986819;28;20490;-76
2021/12/03 10:43:53;;;;;;;15.95;3.90;;;4.70;99.90;;;;;;4994294;28;20026;-78
2021/12/03 10:46:45;;;;;;;7.07;2.60;;;4.70;99.90;;;;;;4984776;28;20110;-78
2021/12/03 10:54:20;;;;;;;14.23;2.42;;;4.60;99.90;;;;;;4993594;28;20027;-78
2021/12/03 10:57:06;;;;;;;16.52;2.80;;;4.60;99.90;;;;;;4989360;28;20483;-78
2021/12/03 11:19:56;;;;;;;11.07;3.15;;;5.00;99.90;;;;;;4976543;28;20093;-79
2021/12/03 12:25:36;;;;;;;3.28;2.33;;;5.60;99.90;;;;;;4976441;28;20073;-77
2021/12/03 12:32:16;;;;;;;6.53;1.42;;;5.50;99.90;;;;;;4991957;28;20053;-80
2021/12/03 12:36:41;;;;;;;10.43;1.98;;;5.60;99.90;;;;;;4992712;28;20038;-80
2021/12/03 12:43:01;;;;;;;3.08;2.03;;;5.50;99.90;;;;;;4990156;28;20088;-80
2021/12/03 12:45:17;;;;;;;7.13;2.20;;;5.60;99.90;;;;;;4983136;28;20428;-78
2021/12/03 12:55:36;;;;;;;3.00;1.95;;;5.60;99.90;;;;;;4990511;28;20093;-78
2021/12/03 13:12:47;;;;;;;7.68;2.83;;;5.50;99.90;;;;;;4976172;28;20118;-80
2021/12/03 13:17:48;;;;;;;7.57;3.60;;;5.40;99.90;;;;;;4980614;28;20081;-80
2021/12/03 14:00:31;;;;;;;5.68;2.90;;;5.00;99.90;;;;;;4987661;28;20026;-81
2021/12/03 14:50:11;;;;;;;6.57;4.43;;;4.90;99.90;;;;;;4976096;28;20073;-80
2021/12/03 14:52:58;;;;;;;7.70;4.28;;;4.90;99.90;;;;;;4981340;28;20112;-80
2021/12/03 14:55:26;;;;;;;4.72;4.10;;;4.80;99.90;;;;;;4995079;28;20029;-80
2021/12/03 14:58:10;;;;;;;7.93;5.35;;;4.80;99.90;;;;;;4995740;28;20034;-81
2021/12/03 15:05:59;;;;;;;6.57;4.88;;;4.90;99.90;;;;;;4981256;28;20034;-79
2021/12/03 15:34:56;;;;;;;7.13;5.75;;;5.10;99.90;;;;;;4996330;28;20077;-81
2021/12/03 15:37:53;;;;;;;16.63;5.93;;;5.00;99.90;;;;;;4991378;28;20041;-81
2021/12/03 15:40:36;;;;;;;6.13;5.53;;;5.00;99.90;;;;;;5016668;28;20043;-82
2021/12/03 15:56:45;;;;;;;7.18;5.55;;;5.00;99.90;;;;;;4999880;28;20053;-79
2021/12/03 16:03:32;;;;;;;6.28;5.40;;;5.10;99.90;;;;;;4998696;28;20023;-79
2021/12/03 16:04:45;;;;;;;8.90;5.35;;;5.10;99.90;;;;;;4980991;28;20041;-80
2021/12/03 16:07:44;;;;;;;;;;;5.10;99.90;;;;;;4983281;28;20039;-81
2021/12/03 16:10:20;;;;;;;7.85;5.40;;;5.10;99.90;;;;;;4995413;28;19914;-80
2021/12/03 16:15:23;;;;;;;7.85;6.28;;;5.10;99.90;;;;;;4982759;28;20038;-80
2021/12/03 16:53:20;;;;;;;13.25;8.40;;;5.20;99.90;;;;;;4991090;28;20464;-80
2021/12/03 16:55:57;;;;;;;12.43;8.85;;;5.20;99.90;;;;;;4981379;28;20027;-79
2021/12/03 16:58:23;;;;;;;11.13;8.00;;;5.20;99.90;;;;;;4989480;28;20094;-80
2021/12/03 17:01:05;;;;;;;13.80;7.90;;;5.30;99.90;;;;;;4990283;28;20019;-79
2021/12/03 17:03:43;;;;;;;12.43;7.88;;;5.20;99.90;;;;;;4982884;28;20038;-81
2021/12/03 17:22:59;;;;;;;14.88;9.73;;;5.20;99.90;;;;;;4993427;28;20070;-81
2021/12/03 17:49:30;;;;;;;20.25;12.15;;;5.40;99.90;;;;;;4992688;28;20058;-81
2021/12/03 17:54:28;;;;;;;17.90;11.70;;;5.30;99.90;;;;;;4987918;28;20476;-80
2021/12/03 17:57:01;;;;;;;20.33;11.95;;;5.30;99.90;;;;;;4978280;28;20045;-80
2021/12/03 17:59:41;;;;;;;19.77;12.40;;;5.40;99.90;;;;;;4988347;28;20046;-79
2021/12/03 18:55:14;;;;;;;13.55;9.05;;;5.50;99.90;;;;;;4977041;28;20125;-80
2021/12/03 18:57:44;;;;;;;15.13;9.13;;;5.40;99.90;;;;;;4984286;28;20030;-80
2021/12/03 19:00:18;;;;;;;13.40;9.20;;;5.40;99.90;;;;;;4981342;28;20499;-79
2021/12/03 19:02:49;;;;;;;16.90;9.32;;;5.50;99.90;;;;;;4986611;28;20484;-80
2021/12/03 19:05:26;;;;;;;14.18;8.55;;;5.50;99.90;;;;;;4978690;28;20419;-80
2021/12/03 19:08:04;;;;;;;16.08;9.93;;;5.50;99.90;;;;;;4980294;28;20526;-81
2021/12/03 19:10:32;;;;;;;14.40;9.00;;;5.50;99.90;;;;;;4994017;28;20388;-80
2021/12/03 19:13:10;;;;;;;17.23;9.80;;;5.60;99.90;;;;;;4983811;28;20030;-80
2021/12/03 19:15:37;;;;;;;14.85;9.90;;;5.50;99.90;;;;;;4976825;28;20030;-80
2021/12/03 19:18:03;;;;;;;20.85;10.63;;;5.50;99.90;;;;;;4986404;28;20018;-80
2021/12/03 19:20:33;;;;;;;15.60;10.30;;;5.40;99.90;;;;;;4993495;28;20506;-80
2021/12/03 19:22:59;;;;;;;18.90;11.07;;;5.40;99.90;;;;;;4991391;28;20050;-80
2021/12/03 19:25:25;;;;;;;16.70;10.13;;;5.40;99.90;;;;;;4975312;28;20039;-80
2021/12/03 19:27:50;;;;;;;12.23;9.10;;;5.40;99.90;;;;;;4991970;28;20034;-80
2021/12/03 19:30:16;;;;;;;14.93;8.38;;;5.40;99.90;;;;;;4994420;28;20046;-80
2021/12/03 19:32:43;;;;;;;17.38;9.70;;;5.40;99.90;;;;;;4975894;28;20457;-80
2021/12/03 19:35:09;;;;;;;15.55;9.02;;;5.40;99.90;;;;;;4975367;28;20440;-80
2021/12/03 19:37:38;;;;;;;13.38;8.80;;;5.30;99.90;;;;;;4976521;28;20035;-80
2021/12/03 19:40:10;;;;;;;14.77;8.75;;;5.40;99.90;;;;;;5000136;28;20216;-80
2021/12/03 19:42:40;;;;;;;17.23;8.98;;;5.40;99.90;;;;;;4989860;28;20034;-79
2021/12/03 19:45:09;;;;;;;15.88;9.35;;;5.30;99.90;;;;;;4994423;28;20254;-78
2021/12/03 19:47:57;;;;;;;13.13;8.82;;;5.40;99.90;;;;;;4978446;28;20034;-80
2021/12/03 19:53:08;;;;;;;13.35;8.77;;;5.40;99.90;;;;;;4980080;28;20318;-79
2021/12/03 19:55:38;;;;;;;14.80;8.25;;;5.40;99.90;;;;;;4989790;28;20289;-80
2021/12/03 19:58:05;;;;;;;13.95;9.50;;;5.40;99.90;;;;;;4988750;28;20545;-79
2021/12/03 20:00:31;;;;;;;17.42;9.23;;;5.30;99.90;;;;;;4978693;28;20018;-80
2021/12/03 20:02:57;;;;;;;16.45;9.88;;;5.30;99.90;;;;;;4978825;28;20046;-80
2021/12/03 20:05:22;;;;;;;17.65;9.48;;;5.30;99.90;;;;;;4991732;28;20386;-80
2021/12/03 20:07:48;;;;;;;13.73;8.98;;;5.30;99.90;;;;;;4990644;28;20054;-80
2021/12/03 20:10:17;;;;;;;14.23;8.60;;;5.30;99.90;;;;;;4984299;28;20031;-80
2021/12/03 20:12:46;;;;;;;15.00;9.52;;;5.30;99.90;;;;;;4988987;28;20068;-79